N444BC KSFO-KSAN
Flight info
| Callsign | N444BC |
|---|---|
| Flight time | N/A |
| Altitude | 35000 |
| Route | WESLA5 YYUNG LAX COMIX2 |
| Aircraft | C750/M-SBDE3FGHRWXY/S |
Departure
| Time | N/A |
|---|---|
| Airport | San Francisco International Airport (KSFO) |
Arrival
| Time | 2026-04-25 21:45 |
|---|---|
| Airport | San Diego International Airport (KSAN) |
| Time | Latitude | Longitude | Altitude | Speed | Heading |
|---|---|---|---|---|---|
| 2026-04-25 21:45 | 32.73474 | -117.19842 | 24 ft | 0 kts | 168° |
| 2026-04-25 21:47 | 32.73467 | -117.19837 | 24 ft | 5 kts | 145° |
| 2026-04-25 21:47 | 32.73443 | -117.19749 | 25 ft | 18 kts | 106° |
| 2026-04-25 21:47 | 32.73404 | -117.19592 | 23 ft | 20 kts | 106° |
| 2026-04-25 21:47 | 32.73367 | -117.19437 | 24 ft | 19 kts | 107° |
| 2026-04-25 21:48 | 32.73329 | -117.19280 | 22 ft | 21 kts | 106° |
| 2026-04-25 21:48 | 32.73290 | -117.19121 | 22 ft | 19 kts | 106° |
| 2026-04-25 21:48 | 32.73254 | -117.18973 | 24 ft | 18 kts | 106° |
| 2026-04-25 21:48 | 32.73247 | -117.18866 | 26 ft | 4 kts | 50° |
| 2026-04-25 21:49 | 32.73248 | -117.18865 | 25 ft | 0 kts | 47° |
| 2026-04-25 21:51 | 32.73249 | -117.18864 | 25 ft | 0 kts | 47° |
| 2026-04-25 21:51 | 32.73257 | -117.18859 | 23 ft | 4 kts | 25° |
| 2026-04-25 21:51 | 32.73309 | -117.18838 | 21 ft | 12 kts | 19° |
| 2026-04-25 21:52 | 32.73406 | -117.18801 | 19 ft | 15 kts | 41° |
| 2026-04-25 21:52 | 32.73404 | -117.18687 | 22 ft | 14 kts | 105° |
| 2026-04-25 21:52 | 32.73378 | -117.18587 | 22 ft | 11 kts | 107° |
| 2026-04-25 21:52 | 32.73357 | -117.18501 | 25 ft | 13 kts | 105° |
| 2026-04-25 21:53 | 32.73329 | -117.18380 | 23 ft | 16 kts | 105° |
| 2026-04-25 21:53 | 32.73296 | -117.18247 | 22 ft | 17 kts | 106° |
| 2026-04-25 21:53 | 32.73265 | -117.18116 | 21 ft | 16 kts | 106° |
| 2026-04-25 21:53 | 32.73253 | -117.17991 | 21 ft | 15 kts | 52° |
| 2026-04-25 21:54 | 32.73334 | -117.17955 | 24 ft | 11 kts | 18° |
| 2026-04-25 21:54 | 32.73362 | -117.17903 | 24 ft | 8 kts | 97° |
| 2026-04-25 21:54 | 32.73364 | -117.17853 | 25 ft | 1 kts | 8° |
| 2026-04-25 21:54 | 32.73367 | -117.17865 | 26 ft | 2 kts | 265° |
| 2026-04-25 21:55 | 32.73367 | -117.17866 | 26 ft | 0 kts | 266° |